createdAt,value
2022-12-11T00:02:08.949Z,290.10
2022-12-11T00:04:37.766Z,171.75
2022-12-11T00:07:09.963Z,206.35
2022-12-11T00:09:37.727Z,230.90
2022-12-11T00:12:07.527Z,226.00
2022-12-11T00:14:40.806Z,165.30
2022-12-11T00:17:13.263Z,304.80
2022-12-11T00:19:44.385Z,295.67
2022-12-11T00:22:11.921Z,193.43
2022-12-11T00:24:39.342Z,260.17
2022-12-11T00:27:09.781Z,246.80
2022-12-11T00:29:37.571Z,150.43
2022-12-11T00:32:05.328Z,138.05
2022-12-11T00:34:32.676Z,165.73
2022-12-11T00:37:03.345Z,163.63
2022-12-11T00:39:31.074Z,201.43
2022-12-11T00:42:00.975Z,143.23
2022-12-11T00:44:28.408Z,156.48
2022-12-11T00:46:57.134Z,185.85
2022-12-11T00:49:24.621Z,129.45
2022-12-11T00:51:52.514Z,159.45
2022-12-11T00:54:28.882Z,150.00
2022-12-11T00:56:58.637Z,143.30
2022-12-11T00:59:28.505Z,140.25
2022-12-11T01:02:01.936Z,133.57
2022-12-11T01:04:29.458Z,129.68
2022-12-11T01:06:58.027Z,135.23
2022-12-11T01:09:44.170Z,119.18
2022-12-11T01:12:18.105Z,144.77
2022-12-11T01:14:48.450Z,147.55
2022-12-11T01:17:18.776Z,152.90
2022-12-11T01:19:46.284Z,122.47
2022-12-11T01:22:13.703Z,123.32
2022-12-11T01:24:41.005Z,116.55
2022-12-11T01:27:08.727Z,154.70
2022-12-11T01:29:36.264Z,139.02
2022-12-11T01:32:03.928Z,126.55
2022-12-11T01:34:41.487Z,131.18
2022-12-11T01:37:10.371Z,118.88
2022-12-11T01:39:42.109Z,125.05
2022-12-11T01:42:18.302Z,137.52
2022-12-11T01:44:45.690Z,115.18
2022-12-11T01:47:13.415Z,123.47
2022-12-11T01:49:43.713Z,109.53
2022-12-11T01:52:21.697Z,125.50
2022-12-11T01:54:51.420Z,164.63
2022-12-11T01:57:18.733Z,124.82
2022-12-11T01:59:48.856Z,133.38
2022-12-11T02:02:33.536Z,111.20
2022-12-11T02:05:02.984Z,142.73
2022-12-11T02:07:44.471Z,115.47
2022-12-11T02:10:12.846Z,107.18
2022-12-11T02:13:04.358Z,122.13
2022-12-11T02:15:41.649Z,123.63
2022-12-11T02:18:34.568Z,102.30
2022-12-11T02:21:01.757Z,136.48
2022-12-11T02:23:47.079Z,131.75
2022-12-11T02:26:34.265Z,119.90
2022-12-11T02:29:05.539Z,120.93
2022-12-11T02:31:45.226Z,92.63
2022-12-11T02:34:24.859Z,122.35
2022-12-11T02:36:57.169Z,105.47
2022-12-11T02:39:27.070Z,100.05
2022-12-11T02:41:55.264Z,85.38
2022-12-11T02:44:30.499Z,104.10
2022-12-11T02:46:59.144Z,103.88
2022-12-11T02:49:28.222Z,109.07
2022-12-11T02:51:58.133Z,101.20
2022-12-11T02:54:33.421Z,102.15
2022-12-11T02:57:04.923Z,107.32
2022-12-11T02:59:44.339Z,98.88
2022-12-11T03:02:13.795Z,94.65
2022-12-11T03:04:42.157Z,82.13
2022-12-11T03:07:23.459Z,81.63
2022-12-11T03:09:51.515Z,88.28
2022-12-11T03:12:32.792Z,99.78
2022-12-11T03:15:03.067Z,91.03
2022-12-11T03:17:57.181Z,87.40
2022-12-11T03:21:03.716Z,80.60
2022-12-11T03:23:33.639Z,86.75
2022-12-11T03:26:08.997Z,93.50
2022-12-11T03:28:56.077Z,83.47
2022-12-11T03:31:40.795Z,90.25
2022-12-11T03:34:18.406Z,86.30
2022-12-11T03:36:48.656Z,93.68
2022-12-11T03:39:21.495Z,109.68
2022-12-11T03:41:50.753Z,100.75
2022-12-11T03:44:19.954Z,112.55
2022-12-11T03:46:49.390Z,103.55
2022-12-11T03:49:26.844Z,95.07
2022-12-11T03:51:56.849Z,92.80
2022-12-11T03:54:25.132Z,88.25
2022-12-11T03:56:56.122Z,89.25
2022-12-11T03:59:23.727Z,114.30
2022-12-11T04:01:51.460Z,105.95
2022-12-11T04:04:19.036Z,126.95
2022-12-11T04:06:46.690Z,139.77
2022-12-11T04:09:13.900Z,109.43
2022-12-11T04:11:43.150Z,117.10
2022-12-11T04:14:32.212Z,105.80
2022-12-11T04:17:00.895Z,125.80
2022-12-11T04:19:46.491Z,114.95
2022-12-11T04:22:34.328Z,114.38
2022-12-11T04:25:02.813Z,99.15
2022-12-11T04:28:02.055Z,131.73
2022-12-11T04:30:33.926Z,116.15
2022-12-11T04:33:02.343Z,98.22
2022-12-11T04:35:30.074Z,107.65
2022-12-11T04:37:57.505Z,119.80
2022-12-11T04:40:24.863Z,146.10
2022-12-11T04:42:52.177Z,116.07
2022-12-11T04:45:19.633Z,135.43
2022-12-11T04:47:46.906Z,152.43
2022-12-11T04:50:16.232Z,155.48
2022-12-11T04:52:44.014Z,179.70
2022-12-11T04:55:12.176Z,121.90
2022-12-11T04:57:39.818Z,131.23
2022-12-11T05:00:09.733Z,145.90
2022-12-11T05:02:38.302Z,122.90
2022-12-11T05:05:07.210Z,141.85
2022-12-11T05:07:34.335Z,127.75
2022-12-11T05:10:01.761Z,122.07
2022-12-11T05:12:29.808Z,133.35
2022-12-11T05:14:57.043Z,167.50
2022-12-11T05:17:24.472Z,128.10
2022-12-11T05:19:52.166Z,160.75
2022-12-11T05:22:19.405Z,128.68
2022-12-11T05:24:46.544Z,151.50
2022-12-11T05:27:13.695Z,119.80
2022-12-11T05:29:40.944Z,173.70
2022-12-11T05:32:08.441Z,123.13
2022-12-11T05:34:35.711Z,118.47
2022-12-11T05:37:02.928Z,162.80
2022-12-11T05:39:30.175Z,147.52
2022-12-11T05:41:57.377Z,129.80
2022-12-11T05:44:25.014Z,137.05
2022-12-11T05:46:52.263Z,139.07
2022-12-11T05:49:25.930Z,123.43
2022-12-11T05:51:56.268Z,129.23
2022-12-11T05:54:23.433Z,138.63
2022-12-11T05:56:51.423Z,142.15
2022-12-11T05:59:19.850Z,114.38
2022-12-11T06:01:47.259Z,112.15
2022-12-11T06:04:14.640Z,166.73
2022-12-11T06:06:43.845Z,107.13
2022-12-11T06:09:16.198Z,117.75
2022-12-11T06:11:43.493Z,114.40
2022-12-11T06:14:11.629Z,102.28
2022-12-11T06:16:38.904Z,122.22
2022-12-11T06:19:06.324Z,162.27
2022-12-11T06:21:34.172Z,104.80
2022-12-11T06:24:03.795Z,118.18
2022-12-11T06:26:32.113Z,127.20
2022-12-11T06:28:59.561Z,105.50
2022-12-11T06:31:26.904Z,135.93
2022-12-11T06:33:54.341Z,112.60
2022-12-11T06:36:23.267Z,126.15
2022-12-11T06:38:51.321Z,117.40
2022-12-11T06:41:18.747Z,123.90
2022-12-11T06:43:45.927Z,100.75
2022-12-11T06:46:18.449Z,94.22
2022-12-11T06:48:46.376Z,114.53
2022-12-11T06:51:18.352Z,93.45
2022-12-11T06:53:50.903Z,112.97
2022-12-11T06:56:18.048Z,91.65
2022-12-11T06:58:45.254Z,116.25
2022-12-11T07:01:18.474Z,117.00
2022-12-11T07:03:45.805Z,122.15
2022-12-11T07:06:13.876Z,116.38
2022-12-11T07:08:41.519Z,119.85
2022-12-11T07:11:14.589Z,119.90
2022-12-11T07:16:14.101Z,124.00
2022-12-11T07:18:43.757Z,92.03
2022-12-11T07:21:13.170Z,101.30
2022-12-11T07:23:40.932Z,106.70
2022-12-11T07:26:11.398Z,126.13
2022-12-11T07:28:39.001Z,99.72
2022-12-11T07:31:08.165Z,119.75
2022-12-11T07:33:35.361Z,118.10
2022-12-11T07:36:07.410Z,132.00
2022-12-11T07:38:34.668Z,130.32
2022-12-11T07:41:06.735Z,93.65
2022-12-11T07:43:35.274Z,103.03
2022-12-11T07:46:12.069Z,94.40
2022-12-11T07:48:41.897Z,93.85
2022-12-11T07:51:15.779Z,90.00
2022-12-11T07:53:45.952Z,95.38
2022-12-11T07:56:13.696Z,97.65
2022-12-11T07:58:40.816Z,98.30
2022-12-11T08:01:40.763Z,86.80
2022-12-11T08:04:09.908Z,90.10
2022-12-11T08:06:39.618Z,111.57
2022-12-11T08:09:09.716Z,107.28
2022-12-11T08:11:37.290Z,91.72
2022-12-11T08:14:06.579Z,99.93
2022-12-11T08:16:33.742Z,93.38
2022-12-11T08:19:00.990Z,93.13
2022-12-11T08:21:29.528Z,110.18
2022-12-11T08:23:56.725Z,90.65
2022-12-11T08:26:27.025Z,93.10
2022-12-11T08:28:54.605Z,95.03
2022-12-11T08:31:22.517Z,118.65
2022-12-11T08:33:50.957Z,99.97
2022-12-11T08:36:21.250Z,102.38
2022-12-11T08:38:51.048Z,110.82
2022-12-11T08:41:21.256Z,91.20
2022-12-11T08:43:49.649Z,107.38
2022-12-11T08:46:16.907Z,91.13
2022-12-11T08:48:44.320Z,98.50
2022-12-11T08:51:14.408Z,95.65
2022-12-11T08:53:41.980Z,98.25
2022-12-11T08:56:15.436Z,101.95
2022-12-11T08:58:43.930Z,97.70
2022-12-11T09:01:17.935Z,109.53
2022-12-11T09:03:45.263Z,87.22
2022-12-11T09:06:15.814Z,81.47
2022-12-11T09:08:51.739Z,93.45
2022-12-11T09:11:23.055Z,90.40
2022-12-11T09:13:50.937Z,108.38
2022-12-11T09:16:20.928Z,89.57
2022-12-11T09:18:50.232Z,84.55
2022-12-11T09:21:20.596Z,94.78
2022-12-11T09:23:48.433Z,90.72
2022-12-11T09:26:17.750Z,90.10
2022-12-11T09:28:47.248Z,89.50
2022-12-11T09:31:36.403Z,91.28
2022-12-11T09:34:09.079Z,87.82
2022-12-11T09:36:41.287Z,87.72
2022-12-11T09:39:12.811Z,74.72
2022-12-11T09:42:00.739Z,78.55
2022-12-11T09:44:52.753Z,86.18
2022-12-11T09:47:42.722Z,77.57
2022-12-11T09:50:09.982Z,84.30
2022-12-11T09:52:49.177Z,81.32
2022-12-11T09:55:24.286Z,90.60
2022-12-11T09:58:27.919Z,83.85
2022-12-11T10:01:05.390Z,72.05
2022-12-11T10:03:51.880Z,80.35
2022-12-11T10:07:00.212Z,78.65
2022-12-11T10:09:49.056Z,78.43
2022-12-11T10:12:36.045Z,81.80
2022-12-11T10:15:37.186Z,82.00
2022-12-11T10:18:16.366Z,80.53
2022-12-11T10:20:45.306Z,73.05
2022-12-11T10:23:22.195Z,70.35
2022-12-11T10:26:05.878Z,70.13
2022-12-11T10:28:33.116Z,78.10
2022-12-11T10:31:14.357Z,63.75
2022-12-11T10:34:02.636Z,62.75
2022-12-11T10:36:37.241Z,57.13
2022-12-11T10:39:20.097Z,59.15
2022-12-11T10:41:50.235Z,69.57
2022-12-11T10:44:29.420Z,57.85
2022-12-11T10:47:13.771Z,55.72
2022-12-11T10:50:01.984Z,54.90
2022-12-11T10:52:33.325Z,52.45
2022-12-11T10:55:04.503Z,55.55
2022-12-11T10:57:37.033Z,61.92
2022-12-11T11:00:06.933Z,48.20
2022-12-11T11:02:40.363Z,52.67
2022-12-11T11:05:29.067Z,52.33
2022-12-11T11:08:21.521Z,52.22
2022-12-11T11:10:55.596Z,52.28
2022-12-11T11:13:25.104Z,49.55
2022-12-11T11:16:07.821Z,51.95
2022-12-11T11:18:35.308Z,56.10
2022-12-11T11:21:03.303Z,55.85
2022-12-11T11:23:30.490Z,59.78
2022-12-11T11:26:09.077Z,57.28
2022-12-11T11:29:02.801Z,57.78
2022-12-11T11:31:36.734Z,57.90
2022-12-11T11:34:20.073Z,60.65
2022-12-11T11:39:34.126Z,58.70
2022-12-11T11:42:09.936Z,64.35
2022-12-11T11:44:47.148Z,60.53
2022-12-11T11:47:27.903Z,57.28
2022-12-11T11:50:08.436Z,56.10
